Time;durP1;ratioP1;P1;durP2;ratioP2;P2;SDS_P1;SDS_P2;PMS_P1;PMS_P2;Temp;Humidity;BMP_temperature;BMP_pressure;BME280_temperature;BME280_humidity;BME280_pressure;Samples;Min_cycle;Max_cycle;Signal;HPM_P1;HPM_P2
2022/12/15 00:41:06;;;;;;;3.33;3.13;;;20.40;55.60;;;;;;5050709;28;20432;-65
2022/12/15 00:43:35;;;;;;;3.57;3.27;;;20.40;55.60;;;;;;5049730;28;20479;-65
2022/12/15 00:48:50;;;;;;;3.50;3.20;;;20.40;55.60;;;;;;5050522;28;20474;-65
2022/12/15 00:51:17;;;;;;;2.93;2.73;;;20.30;55.60;;;;;;5050771;28;20990;-65
2022/12/15 01:21:32;;;;;;;2.90;2.70;;;20.40;55.80;;;;;;5060432;28;20535;-65
2022/12/15 01:24:00;;;;;;;3.37;3.17;;;20.50;55.70;;;;;;5033266;28;20556;-65
2022/12/15 01:26:28;;;;;;;2.80;2.60;;;20.50;55.60;;;;;;5048862;28;20559;-65
2022/12/15 01:28:58;;;;;;;3.20;3.00;;;20.50;55.60;;;;;;5049520;28;20464;-65
2022/12/15 01:31:26;;;;;;;3.03;2.83;;;20.50;55.60;;;;;;5046736;28;20453;-65
2022/12/15 01:33:54;;;;;;;3.20;3.00;;;20.50;55.50;;;;;;5054472;28;20534;-65
2022/12/15 01:36:23;;;;;;;2.50;2.40;;;20.50;55.50;;;;;;5052358;28;20539;-65
2022/12/15 01:38:51;;;;;;;2.90;2.70;;;20.50;55.50;;;;;;5054821;28;20888;-65
2022/12/15 01:41:20;;;;;;;2.87;2.67;;;20.50;55.40;;;;;;5054929;28;20457;-65
2022/12/15 01:43:48;;;;;;;3.50;3.17;;;20.50;55.40;;;;;;5054422;28;20479;-65
2022/12/15 01:46:21;;;;;;;2.93;2.73;;;20.50;55.40;;;;;;5052935;28;20521;-65
2022/12/15 01:48:54;;;;;;;2.77;2.57;;;20.50;55.40;;;;;;5054116;28;20550;-65
2022/12/15 01:51:26;;;;;;;3.10;2.80;;;20.40;55.40;;;;;;5053944;28;20457;-65
2022/12/15 01:54:01;;;;;;;3.10;2.90;;;20.40;55.40;;;;;;5055261;28;20536;-65
2022/12/15 01:56:32;;;;;;;2.77;2.67;;;20.40;55.40;;;;;;5052860;28;20535;-65
2022/12/15 01:59:07;;;;;;;3.13;2.93;;;20.40;55.40;;;;;;5052219;28;20880;-65
2022/12/15 02:01:37;;;;;;;3.10;2.90;;;20.40;55.40;;;;;;5053972;28;20463;-65
2022/12/15 02:04:05;;;;;;;3.70;3.40;;;20.40;55.40;;;;;;5053963;28;20476;-65
2022/12/15 02:06:33;;;;;;;2.60;2.40;;;20.30;55.40;;;;;;5045966;28;20938;-65
2022/12/15 02:09:03;;;;;;;3.03;2.83;;;20.30;55.40;;;;;;5053669;28;20455;-65
2022/12/15 02:12:10;;;;;;;2.93;2.73;;;20.30;55.50;;;;;;5053623;28;20473;-65
2022/12/15 02:14:47;;;;;;;3.40;2.70;;;20.30;55.50;;;;;;5018208;28;20462;-65
2022/12/15 02:17:25;;;;;;;2.70;2.50;;;20.30;55.50;;;;;;5049406;28;20917;-65
2022/12/15 02:20:29;;;;;;;2.93;2.73;;;20.30;55.50;;;;;;5052378;28;20518;-65
2022/12/15 02:23:37;;;;;;;2.80;2.60;;;20.30;55.50;;;;;;5046083;28;20439;-65
2022/12/15 02:26:31;;;;;;;2.60;2.40;;;20.40;55.50;;;;;;5051346;28;20539;-65
2022/12/15 02:29:12;;;;;;;3.13;2.93;;;20.40;55.50;;;;;;5052782;28;20906;-65
2022/12/15 02:31:49;;;;;;;2.50;2.40;;;20.40;55.40;;;;;;5053685;28;20460;-65
2022/12/15 02:34:25;;;;;;;2.77;2.60;;;20.40;55.40;;;;;;5048297;28;20453;-65
2022/12/15 02:39:49;;;;;;;2.97;2.77;;;20.40;55.20;;;;;;5254755;23;20534;-87
2022/12/15 02:42:17;;;;;;;2.87;2.63;;;20.40;55.20;;;;;;4927606;29;20958;-87
2022/12/15 02:44:50;;;;;;;2.10;2.00;;;20.50;55.10;;;;;;4932148;29;20569;-87
2022/12/15 02:47:31;;;;;;;2.80;2.60;;;20.50;55.10;;;;;;4941212;29;20464;-87
2022/12/15 02:50:24;;;;;;;2.90;2.70;;;20.50;55.10;;;;;;4938837;29;20467;-87
2022/12/15 02:53:08;;;;;;;2.70;2.60;;;20.50;55.10;;;;;;4935160;29;20908;-87
2022/12/15 02:55:45;;;;;;;3.03;2.83;;;20.40;55.10;;;;;;4929747;29;20563;-87
2022/12/15 02:58:20;;;;;;;3.00;2.80;;;20.40;55.10;;;;;;4921513;29;20474;-87
2022/12/15 03:00:54;;;;;;;3.10;2.90;;;20.40;55.10;;;;;;4926478;29;20469;-88
2022/12/15 03:03:25;;;;;;;2.90;2.70;;;20.40;55.10;;;;;;4934366;29;20482;-87
2022/12/15 03:05:53;;;;;;;2.70;2.50;;;20.40;55.20;;;;;;4935948;29;20646;-88
2022/12/15 03:08:22;;;;;;;2.80;2.60;;;20.40;55.20;;;;;;4936272;29;20574;-87
2022/12/15 03:10:52;;;;;;;2.97;2.80;;;20.40;55.20;;;;;;4935714;29;20446;-87
2022/12/15 03:13:23;;;;;;;2.50;2.30;;;20.40;55.20;;;;;;4934727;29;20501;-88
2022/12/15 03:15:51;;;;;;;2.90;2.70;;;20.40;55.30;;;;;;4935578;29;20526;-87
2022/12/15 03:18:19;;;;;;;2.83;2.63;;;20.40;55.30;;;;;;4935135;29;21265;-87
2022/12/15 03:20:52;;;;;;;2.80;2.60;;;20.40;55.30;;;;;;4935189;29;20462;-88
2022/12/15 03:23:21;;;;;;;2.13;2.03;;;20.40;55.30;;;;;;4926354;29;21026;-87
2022/12/15 03:25:50;;;;;;;3.40;3.10;;;20.30;55.30;;;;;;4934536;29;21367;-87
2022/12/15 03:28:18;;;;;;;2.77;2.57;;;20.40;55.30;;;;;;4935783;29;20437;-87
2022/12/15 03:30:47;;;;;;;2.63;2.43;;;20.40;55.30;;;;;;4935341;29;20570;-87
2022/12/15 03:33:18;;;;;;;3.00;2.80;;;20.40;55.30;;;;;;4977060;23;20544;-87
2022/12/15 03:35:46;;;;;;;3.13;2.73;;;20.40;55.30;;;;;;4951795;28;20492;-87
2022/12/15 03:38:15;;;;;;;4.10;2.53;;;20.40;55.30;;;;;;4942966;28;20902;-87
2022/12/15 03:40:44;;;;;;;2.60;2.40;;;20.40;55.20;;;;;;4953120;29;20467;-87
2022/12/15 03:43:12;;;;;;;2.77;2.57;;;20.40;55.20;;;;;;4938699;28;20545;-87
2022/12/15 03:45:40;;;;;;;2.27;2.17;;;20.40;55.20;;;;;;4934101;29;20483;-88
2022/12/15 03:48:08;;;;;;;2.87;2.77;;;20.40;55.20;;;;;;4951619;29;20458;-87
2022/12/15 03:50:37;;;;;;;2.83;2.73;;;20.40;55.10;;;;;;4954556;29;20472;-88
2022/12/15 03:53:05;;;;;;;2.80;2.60;;;20.40;55.10;;;;;;4952409;29;20465;-88
2022/12/15 03:55:35;;;;;;;2.90;2.60;;;20.40;55.10;;;;;;4943063;28;20501;-87
2022/12/15 03:58:03;;;;;;;3.07;2.77;;;20.40;55.10;;;;;;4935356;29;20478;-88
2022/12/15 04:00:31;;;;;;;2.43;2.33;;;20.40;55.00;;;;;;4934239;29;20498;-87
2022/12/15 04:03:00;;;;;;;3.00;2.80;;;20.40;55.00;;;;;;4935048;29;20496;-87
2022/12/15 04:05:30;;;;;;;3.10;2.90;;;20.40;55.00;;;;;;4935005;29;20572;-87
2022/12/15 04:07:59;;;;;;;3.10;2.90;;;20.40;55.00;;;;;;4951749;29;20450;-87
2022/12/15 04:10:30;;;;;;;2.70;2.50;;;20.40;55.00;;;;;;4953764;29;20494;-87
2022/12/15 04:13:05;;;;;;;2.87;2.67;;;20.40;54.90;;;;;;4953584;29;20544;-87
2022/12/15 04:15:34;;;;;;;2.40;2.23;;;20.40;54.90;;;;;;4953475;29;20437;-87
2022/12/15 04:18:03;;;;;;;2.40;2.30;;;20.40;54.90;;;;;;4953659;28;20520;-87
2022/12/15 04:20:32;;;;;;;2.93;2.73;;;20.40;54.90;;;;;;4953947;28;20541;-87
2022/12/15 04:23:01;;;;;;;2.80;2.70;;;20.40;54.90;;;;;;4940247;29;20468;-87
2022/12/15 05:32:12;;;;;;;2.80;2.60;;;20.30;55.00;;;;;;4949236;29;20562;-87
2022/12/15 05:34:41;;;;;;;2.70;2.60;;;20.30;55.00;;;;;;4951048;29;20453;-87
2022/12/15 05:37:09;;;;;;;3.83;3.63;;;20.30;55.00;;;;;;4953077;29;20548;-87
2022/12/15 05:39:37;;;;;;;2.50;2.37;;;20.30;55.00;;;;;;4951401;29;20520;-87
2022/12/15 05:42:06;;;;;;;2.70;2.57;;;20.30;55.00;;;;;;4943519;28;20471;-87
2022/12/15 05:44:34;;;;;;;2.80;2.60;;;20.30;54.90;;;;;;4938804;29;20466;-87
2022/12/15 05:47:03;;;;;;;2.73;2.53;;;20.30;54.90;;;;;;4947416;28;20571;-87
2022/12/15 05:49:32;;;;;;;2.80;2.60;;;20.40;54.90;;;;;;4942375;29;20556;-87
2022/12/15 05:52:01;;;;;;;2.60;2.40;;;20.40;54.90;;;;;;4948575;29;20959;-87
2022/12/15 05:54:30;;;;;;;2.67;2.47;;;20.40;54.90;;;;;;4951769;29;20455;-87
2022/12/15 05:56:58;;;;;;;2.77;2.57;;;20.40;54.90;;;;;;4947782;29;20544;-88
2022/12/15 05:59:26;;;;;;;2.80;2.70;;;20.40;54.80;;;;;;4948983;29;20466;-87
2022/12/15 06:01:54;;;;;;;2.70;2.50;;;20.40;54.90;;;;;;4945991;28;22230;-87
2022/12/15 06:04:23;;;;;;;2.47;2.27;;;20.40;54.90;;;;;;4945178;29;20460;-87
2022/12/15 06:06:51;;;;;;;2.80;2.60;;;20.40;54.90;;;;;;4945012;29;20581;-87
2022/12/15 06:09:20;;;;;;;3.07;2.87;;;20.40;55.00;;;;;;4956138;28;20465;-87
2022/12/15 06:11:48;;;;;;;3.00;2.80;;;20.40;55.00;;;;;;4948798;28;20510;-86
2022/12/15 06:14:17;;;;;;;3.30;3.00;;;20.40;55.10;;;;;;4949173;29;20453;-86
2022/12/15 06:16:45;;;;;;;2.97;2.60;;;20.40;55.10;;;;;;4950328;29;22409;-86
2022/12/15 06:19:19;;;;;;;3.90;3.00;;;20.40;55.20;;;;;;4949244;28;20562;-86
2022/12/15 06:21:48;;;;;;;3.50;3.23;;;20.40;55.30;;;;;;4950579;29;20473;-86
2022/12/15 06:24:17;;;;;;;5.40;3.37;;;20.40;55.30;;;;;;4952938;29;20452;-86
2022/12/15 06:26:46;;;;;;;2.80;2.60;;;20.30;55.40;;;;;;4956325;28;20496;-86
2022/12/15 06:29:17;;;;;;;3.00;2.73;;;20.30;55.40;;;;;;4952395;29;20785;-87
2022/12/15 06:31:45;;;;;;;6.90;3.37;;;20.30;55.50;;;;;;4947790;29;20479;-86
2022/12/15 06:34:16;;;;;;;2.93;2.73;;;20.30;55.50;;;;;;4951540;29;20556;-85
2022/12/15 06:36:45;;;;;;;3.60;3.23;;;20.30;55.60;;;;;;4950950;29;20463;-86
2022/12/15 06:39:15;;;;;;;3.40;3.10;;;20.30;55.60;;;;;;4951302;29;21343;-85
2022/12/15 06:41:44;;;;;;;4.70;2.70;;;20.30;55.60;;;;;;4952666;29;20487;-86
2022/12/15 06:44:15;;;;;;;3.07;2.87;;;20.30;55.60;;;;;;4944086;29;20454;-86
2022/12/15 06:46:44;;;;;;;2.93;2.73;;;20.30;55.70;;;;;;4940080;29;20543;-85
2022/12/15 06:49:13;;;;;;;4.10;2.57;;;20.30;55.70;;;;;;4952820;29;20543;-86
2022/12/15 06:51:42;;;;;;;4.33;2.63;;;20.30;55.80;;;;;;4956448;29;20879;-86
2022/12/15 06:54:11;;;;;;;3.53;3.17;;;20.30;55.80;;;;;;4956368;28;20911;-86
2022/12/15 06:56:39;;;;;;;3.83;3.43;;;20.30;55.80;;;;;;4956324;28;20539;-86
2022/12/15 06:59:08;;;;;;;3.07;2.87;;;20.30;55.80;;;;;;4950009;28;20465;-86
2022/12/15 07:01:38;;;;;;;3.77;3.47;;;20.30;55.80;;;;;;4937045;29;20514;-86
2022/12/15 07:04:06;;;;;;;3.63;3.33;;;20.30;55.80;;;;;;4954293;29;20462;-86
2022/12/15 07:06:36;;;;;;;3.10;2.90;;;20.30;55.80;;;;;;4955206;29;20568;-86
2022/12/15 07:09:07;;;;;;;5.00;2.83;;;20.30;55.80;;;;;;4953765;29;20487;-86
2022/12/15 07:11:36;;;;;;;3.80;3.50;;;20.30;55.80;;;;;;4953862;29;20553;-86
2022/12/15 07:14:04;;;;;;;3.53;3.13;;;20.30;55.80;;;;;;4950805;28;20546;-86
2022/12/15 07:16:33;;;;;;;3.80;3.37;;;20.30;55.80;;;;;;4936901;29;20894;-86
2022/12/15 07:19:02;;;;;;;3.47;3.07;;;20.30;55.70;;;;;;4943314;29;20535;-86
2022/12/15 07:21:31;;;;;;;4.23;3.67;;;20.30;55.70;;;;;;4955567;28;20475;-86
2022/12/15 07:24:00;;;;;;;3.87;3.47;;;20.30;55.70;;;;;;4947829;29;20451;-86
2022/12/15 07:26:30;;;;;;;4.10;3.63;;;20.30;55.70;;;;;;4955403;29;20856;-86
2022/12/15 07:28:58;;;;;;;3.97;3.57;;;20.30;55.60;;;;;;4955437;28;20436;-86
2022/12/15 07:31:26;;;;;;;4.90;3.30;;;20.30;55.60;;;;;;4955632;29;20565;-86
2022/12/15 07:33:54;;;;;;;3.33;3.03;;;20.30;55.50;;;;;;4947213;29;20497;-86
2022/12/15 07:36:25;;;;;;;4.63;4.23;;;20.30;55.50;;;;;;4936399;29;20554;-86
2022/12/15 07:38:59;;;;;;;4.87;4.10;;;20.30;55.50;;;;;;4936354;29;20510;-86
2022/12/15 07:41:28;;;;;;;5.20;4.70;;;20.30;56.50;;;;;;4937109;29;20453;-83
2022/12/15 07:43:57;;;;;;;3.90;3.60;;;20.30;56.70;;;;;;4945894;29;21031;-84
2022/12/15 07:46:26;;;;;;;4.27;3.87;;;20.30;56.80;;;;;;4953855;29;20907;-86
2022/12/15 07:48:54;;;;;;;4.40;4.00;;;20.30;57.20;;;;;;4952285;29;20464;-83
2022/12/15 07:51:24;;;;;;;4.73;4.20;;;20.30;57.30;;;;;;4954331;29;20496;-83
2022/12/15 07:53:52;;;;;;;5.07;4.13;;;20.30;57.20;;;;;;4954195;28;20457;-83
2022/12/15 07:56:20;;;;;;;4.33;3.93;;;20.30;57.10;;;;;;4953252;29;20555;-83
2022/12/15 07:58:49;;;;;;;4.53;4.13;;;20.30;57.00;;;;;;4952934;29;20461;-82
2022/12/15 08:01:18;;;;;;;6.50;4.60;;;20.40;56.80;;;;;;4953431;28;20444;-82
2022/12/15 08:03:48;;;;;;;5.03;4.10;;;20.40;56.60;;;;;;4953217;29;20464;-83
2022/12/15 08:06:17;;;;;;;5.03;4.47;;;20.40;56.60;;;;;;4954045;29;20557;-83
2022/12/15 08:08:46;;;;;;;4.60;4.20;;;20.40;56.40;;;;;;4953288;29;20598;-82
2022/12/15 08:11:19;;;;;;;4.40;4.03;;;20.40;56.20;;;;;;4953291;29;20469;-81
2022/12/15 08:13:48;;;;;;;4.83;3.83;;;20.40;56.00;;;;;;4952622;29;20484;-83
2022/12/15 08:16:36;;;;;;;4.90;4.50;;;20.40;55.80;;;;;;4954158;28;20437;-83
2022/12/15 08:19:05;;;;;;;4.70;4.30;;;20.40;55.70;;;;;;4951428;29;20452;-83
2022/12/15 08:21:33;;;;;;;4.03;3.80;;;20.40;55.60;;;;;;4945239;28;20510;-84
2022/12/15 08:24:04;;;;;;;5.27;4.40;;;20.50;55.50;;;;;;4946872;28;20473;-82
2022/12/15 08:26:32;;;;;;;5.30;3.80;;;20.50;55.30;;;;;;4941543;29;20510;-82
2022/12/15 08:29:05;;;;;;;5.17;4.67;;;20.50;55.20;;;;;;4940974;29;20538;-83
2022/12/15 08:31:53;;;;;;;5.03;4.63;;;20.50;54.80;;;;;;4948696;29;20483;-82
2022/12/15 08:34:22;;;;;;;5.40;4.37;;;20.50;54.60;;;;;;4941145;29;20438;-82
2022/12/15 08:36:50;;;;;;;4.67;4.17;;;20.50;54.40;;;;;;4947013;29;20587;-82
2022/12/15 08:39:20;;;;;;;4.90;4.50;;;20.60;54.30;;;;;;4946200;28;20478;-82
2022/12/15 08:41:48;;;;;;;4.90;4.50;;;20.60;54.10;;;;;;4946312;29;20469;-82
2022/12/15 08:44:16;;;;;;;4.97;4.33;;;20.60;54.00;;;;;;4943422;29;20489;-82
2022/12/15 08:46:45;;;;;;;5.37;4.23;;;20.50;54.00;;;;;;4945625;28;20517;-82
2022/12/15 08:49:13;;;;;;;5.00;4.50;;;20.60;54.30;;;;;;4949188;29;20499;-83
2022/12/15 08:51:49;;;;;;;4.73;4.33;;;20.60;54.40;;;;;;4953546;29;20460;-83
2022/12/15 08:54:19;;;;;;;5.10;4.63;;;20.60;54.30;;;;;;4953292;29;20909;-81
2022/12/15 08:56:48;;;;;;;5.07;4.67;;;20.60;54.20;;;;;;4952359;29;20853;-83
2022/12/15 08:59:16;;;;;;;4.93;4.43;;;20.60;54.20;;;;;;4953742;29;20449;-83
2022/12/15 09:01:44;;;;;;;5.60;5.10;;;20.60;54.20;;;;;;4953352;29;20455;-82
2022/12/15 09:04:12;;;;;;;5.80;5.20;;;20.60;54.10;;;;;;4936133;29;20458;-83
2022/12/15 09:06:41;;;;;;;6.53;4.33;;;20.60;54.00;;;;;;4952747;29;20457;-82
2022/12/15 09:09:13;;;;;;;4.93;4.53;;;20.60;53.90;;;;;;4953232;29;20521;-82
2022/12/15 09:11:43;;;;;;;5.27;4.73;;;20.60;53.80;;;;;;4953498;28;20445;-83
2022/12/15 09:14:11;;;;;;;4.90;4.47;;;20.60;53.70;;;;;;4953386;28;20503;-84
2022/12/15 09:16:39;;;;;;;5.73;5.27;;;20.60;53.60;;;;;;4952730;28;20807;-83
2022/12/15 09:19:09;;;;;;;5.13;4.60;;;20.70;53.60;;;;;;4952899;29;20900;-83
2022/12/15 09:21:38;;;;;;;5.00;4.60;;;20.70;53.60;;;;;;4952184;29;20476;-82
2022/12/15 09:24:07;;;;;;;5.23;4.83;;;20.70;53.60;;;;;;4952913;29;20425;-83
2022/12/15 09:26:35;;;;;;;4.87;4.53;;;20.70;53.50;;;;;;4952794;29;20445;-83
2022/12/15 09:29:05;;;;;;;5.63;5.13;;;20.70;53.50;;;;;;4951364;29;20494;-82
2022/12/15 09:31:37;;;;;;;5.17;4.70;;;20.60;53.40;;;;;;4952842;28;20456;-83
2022/12/15 09:34:05;;;;;;;6.03;5.50;;;20.60;53.40;;;;;;4952267;29;20516;-84
2022/12/15 09:36:34;;;;;;;5.07;4.67;;;20.70;53.40;;;;;;4951942;29;20912;-84
2022/12/15 09:39:02;;;;;;;6.10;5.50;;;20.70;53.30;;;;;;4947068;28;20482;-82
2022/12/15 09:41:32;;;;;;;6.00;5.30;;;20.70;53.30;;;;;;4952443;28;20461;-79
2022/12/15 09:44:05;;;;;;;5.57;5.17;;;20.70;53.30;;;;;;4950952;28;20523;-79
2022/12/15 09:46:45;;;;;;;5.60;5.10;;;20.70;53.40;;;;;;4952328;28;20446;-79
2022/12/15 09:49:32;;;;;;;5.93;5.40;;;20.70;53.10;;;;;;4952533;29;20479;-79
2022/12/15 09:52:04;;;;;;;5.73;5.23;;;20.70;52.80;;;;;;4952899;28;20449;-79
2022/12/15 09:54:40;;;;;;;6.13;5.60;;;20.70;52.60;;;;;;4953275;29;20495;-79
2022/12/15 09:57:16;;;;;;;6.60;6.00;;;20.70;52.60;;;;;;4954725;29;20531;-81
2022/12/15 10:00:03;;;;;;;5.83;5.33;;;20.70;52.40;;;;;;4948933;29;20553;-80
2022/12/15 10:03:09;;;;;;;7.00;5.23;;;20.70;52.80;;;;;;4955907;28;20506;-82
2022/12/15 10:05:47;;;;;;;5.90;5.30;;;20.70;52.90;;;;;;4947374;28;20466;-82
2022/12/15 10:08:39;;;;;;;6.53;5.90;;;20.70;53.20;;;;;;4955214;29;20468;-81
2022/12/15 10:11:21;;;;;;;5.60;5.10;;;20.70;53.30;;;;;;4954696;29;20524;-80
2022/12/15 10:13:54;;;;;;;5.37;4.93;;;20.70;53.40;;;;;;4955236;28;20454;-80
2022/12/15 10:16:31;;;;;;;5.40;5.00;;;20.70;53.50;;;;;;4949817;29;20447;-81
2022/12/15 10:19:07;;;;;;;5.93;5.17;;;20.70;53.50;;;;;;4935454;29;20847;-80
2022/12/15 10:21:36;;;;;;;4.80;4.40;;;20.70;53.70;;;;;;4946380;29;20454;-82
2022/12/15 10:24:16;;;;;;;6.07;5.00;;;20.70;53.70;;;;;;4941933;28;20452;-79
2022/12/15 10:27:16;;;;;;;6.03;5.40;;;20.70;53.70;;;;;;4936950;29;20436;-81
2022/12/15 10:29:46;;;;;;;6.20;5.60;;;20.70;53.70;;;;;;4938974;29;20501;-80
2022/12/15 10:32:21;;;;;;;5.60;5.10;;;20.70;53.70;;;;;;4955467;29;20569;-81
2022/12/15 10:34:50;;;;;;;6.80;5.60;;;20.80;53.70;;;;;;4954994;29;20485;-80
2022/12/15 10:37:20;;;;;;;7.90;5.30;;;20.80;53.70;;;;;;4954181;29;20469;-80
2022/12/15 10:39:50;;;;;;;5.00;4.53;;;20.80;53.70;;;;;;4954709;28;20936;-80
2022/12/15 10:42:21;;;;;;;6.60;5.27;;;20.80;53.90;;;;;;4948749;29;20873;-80
2022/12/15 10:44:51;;;;;;;5.90;5.37;;;20.80;53.70;;;;;;4954931;28;20493;-81
2022/12/15 10:47:24;;;;;;;5.67;5.27;;;20.80;53.70;;;;;;4954928;29;20479;-80
2022/12/15 10:49:53;;;;;;;5.60;5.10;;;20.90;53.70;;;;;;4955263;28;20653;-80
2022/12/15 10:52:32;;;;;;;5.40;4.90;;;20.90;53.70;;;;;;4955209;28;20512;-81
2022/12/15 10:55:00;;;;;;;5.23;4.80;;;20.90;53.90;;;;;;4953626;29;20969;-80
2022/12/15 10:57:30;;;;;;;5.50;5.03;;;20.90;53.70;;;;;;4955397;28;20534;-80
2022/12/15 11:00:28;;;;;;;5.43;4.93;;;21.00;53.70;;;;;;4955066;29;20453;-80
2022/12/15 11:02:58;;;;;;;5.20;4.57;;;21.00;53.70;;;;;;4954982;28;20434;-80
2022/12/15 11:05:27;;;;;;;5.40;5.00;;;21.00;53.70;;;;;;4954316;28;20582;-81
2022/12/15 11:08:13;;;;;;;5.83;5.40;;;21.00;53.70;;;;;;4955309;28;20455;-81
2022/12/15 11:13:36;;;;;;;5.80;5.20;;;21.00;53.70;;;;;;4954091;28;20463;-81
2022/12/15 11:16:16;;;;;;;4.27;3.87;;;21.00;53.80;;;;;;4954941;29;20451;-81
2022/12/15 11:18:50;;;;;;;5.17;4.70;;;21.00;53.80;;;;;;4954710;29;20572;-81
2022/12/15 11:21:24;;;;;;;5.47;5.07;;;21.00;53.70;;;;;;4953381;29;20460;-81
2022/12/15 11:23:59;;;;;;;5.63;4.97;;;20.90;53.90;;;;;;4953713;29;20461;-81
2022/12/15 11:26:39;;;;;;;5.17;4.70;;;20.90;53.90;;;;;;4954807;29;20834;-81
2022/12/15 11:29:18;;;;;;;5.50;5.10;;;20.90;53.90;;;;;;4954110;29;20481;-81
2022/12/15 11:31:46;;;;;;;6.30;4.80;;;20.90;53.90;;;;;;4953906;29;20559;-81
2022/12/15 11:34:41;;;;;;;4.93;4.53;;;20.90;54.00;;;;;;4949987;29;20467;-82
2022/12/15 11:37:26;;;;;;;6.03;5.43;;;20.90;54.00;;;;;;4935118;29;20877;-81
2022/12/15 11:40:26;;;;;;;5.30;4.80;;;21.00;54.20;;;;;;4934605;29;20506;-81
2022/12/15 11:43:09;;;;;;;5.40;5.00;;;21.00;54.10;;;;;;4935086;29;20476;-82
2022/12/15 11:45:46;;;;;;;5.17;4.77;;;21.00;54.10;;;;;;4951860;29;20458;-81
2022/12/15 11:48:18;;;;;;;5.60;5.20;;;21.00;54.20;;;;;;4939772;29;20489;-82
2022/12/15 11:50:56;;;;;;;6.67;4.73;;;21.00;54.40;;;;;;4938082;29;20448;-82
2022/12/15 11:53:48;;;;;;;5.03;4.53;;;21.00;54.50;;;;;;4950983;29;20461;-82
2022/12/15 11:56:25;;;;;;;5.30;4.80;;;21.00;54.40;;;;;;4940737;29;21075;-82
2022/12/15 11:59:36;;;;;;;5.30;4.80;;;21.00;54.40;;;;;;4933571;29;20437;-81
2022/12/15 12:02:24;;;;;;;5.97;4.97;;;21.00;54.40;;;;;;4949736;28;20510;-83
2022/12/15 12:05:12;;;;;;;5.73;4.83;;;21.00;54.30;;;;;;4947222;28;20756;-82
2022/12/15 12:07:46;;;;;;;4.77;4.37;;;21.00;54.30;;;;;;4947233;28;21006;-81
2022/12/15 12:10:30;;;;;;;5.50;5.10;;;21.00;54.10;;;;;;4950219;29;20473;-83
2022/12/15 12:13:09;;;;;;;4.93;4.50;;;21.00;53.90;;;;;;4945509;28;21004;-84
2022/12/15 12:15:51;;;;;;;5.30;4.80;;;21.00;53.80;;;;;;4948287;28;21015;-85
2022/12/15 12:18:24;;;;;;;5.90;5.40;;;21.00;53.70;;;;;;4949570;28;20462;-84
2022/12/15 12:20:58;;;;;;;5.13;4.73;;;21.00;53.70;;;;;;4948368;28;20465;-84
2022/12/15 12:23:35;;;;;;;5.97;5.47;;;21.00;53.70;;;;;;4954504;28;20453;-85
2022/12/15 12:26:12;;;;;;;5.73;5.10;;;20.90;53.90;;;;;;4958787;28;20553;-83
2022/12/15 12:28:46;;;;;;;6.93;6.27;;;20.90;53.90;;;;;;4943353;29;20490;-83
2022/12/15 12:31:42;;;;;;;5.20;4.70;;;20.90;54.00;;;;;;4948664;29;20480;-83
2022/12/15 12:34:15;;;;;;;5.70;5.20;;;20.90;54.00;;;;;;4944095;28;20769;-85
2022/12/15 12:36:47;;;;;;;6.30;4.70;;;20.80;54.20;;;;;;4942430;28;20550;-84
2022/12/15 12:39:20;;;;;;;5.10;4.70;;;20.80;54.20;;;;;;4949636;28;20464;-84
2022/12/15 12:41:56;;;;;;;6.70;5.60;;;20.80;54.20;;;;;;4949120;28;20474;-85
2022/12/15 12:44:31;;;;;;;6.17;5.67;;;20.80;54.20;;;;;;4947677;28;20469;-86
2022/12/15 12:47:07;;;;;;;6.30;5.70;;;20.70;54.20;;;;;;4949126;29;20885;-86
2022/12/15 12:49:41;;;;;;;8.37;6.43;;;20.70;54.20;;;;;;4949259;29;20536;-85
2022/12/15 12:52:20;;;;;;;7.50;6.20;;;20.70;54.20;;;;;;4943058;29;20504;-86
2022/12/15 12:54:57;;;;;;;5.60;5.10;;;20.70;54.30;;;;;;4945484;29;20556;-86
2022/12/15 12:57:33;;;;;;;6.60;6.00;;;20.70;54.40;;;;;;4951092;29;20554;-85
2022/12/15 13:00:05;;;;;;;7.10;5.73;;;20.70;54.50;;;;;;4941032;29;20488;-85
2022/12/15 13:02:49;;;;;;;6.83;5.87;;;20.70;54.50;;;;;;4949209;28;20503;-85
2022/12/15 13:05:28;;;;;;;6.60;6.00;;;20.60;54.60;;;;;;4948736;28;20458;-85
2022/12/15 13:08:16;;;;;;;6.90;5.60;;;20.60;54.70;;;;;;4945828;29;20962;-85
2022/12/15 13:10:47;;;;;;;6.23;5.67;;;20.60;54.80;;;;;;4943890;29;20472;-85
2022/12/15 13:13:43;;;;;;;6.63;5.87;;;20.70;54.90;;;;;;4944022;29;20593;-89
2022/12/15 13:16:21;;;;;;;8.50;6.00;;;20.70;55.00;;;;;;4941977;29;20809;-83
2022/12/15 13:19:02;;;;;;;5.50;4.97;;;20.80;55.20;;;;;;4947317;29;20560;-82
2022/12/15 13:21:54;;;;;;;5.83;5.10;;;20.90;55.40;;;;;;4950906;29;20465;-83
2022/12/15 13:24:32;;;;;;;7.30;5.63;;;20.90;55.50;;;;;;4944889;29;20455;-82
2022/12/15 13:27:13;;;;;;;5.80;5.23;;;21.00;55.50;;;;;;4948653;28;20497;-83
2022/12/15 13:30:01;;;;;;;5.67;5.17;;;21.00;55.70;;;;;;4949199;29;20470;-83
2022/12/15 13:32:33;;;;;;;6.30;5.80;;;21.10;55.70;;;;;;4954547;29;20496;-83
2022/12/15 13:35:20;;;;;;;7.80;5.60;;;21.10;55.80;;;;;;4948855;28;20464;-84
2022/12/15 13:37:51;;;;;;;6.00;5.50;;;21.10;55.90;;;;;;4948920;29;20780;-83
2022/12/15 13:40:33;;;;;;;6.50;5.57;;;21.10;55.40;;;;;;4950910;29;20490;-83
2022/12/15 13:43:30;;;;;;;6.40;5.60;;;21.10;55.30;;;;;;4953260;29;20458;-84
2022/12/15 13:46:02;;;;;;;5.63;5.23;;;21.10;55.50;;;;;;4947482;28;20461;-84
2022/12/15 13:48:37;;;;;;;6.73;5.37;;;21.10;55.70;;;;;;4942039;28;20462;-84
2022/12/15 13:51:27;;;;;;;5.57;4.87;;;21.20;55.90;;;;;;4951068;29;20482;-83
2022/12/15 13:53:59;;;;;;;6.50;5.50;;;21.10;56.00;;;;;;4958596;28;20874;-83
2022/12/15 13:56:54;;;;;;;5.80;5.30;;;21.20;56.10;;;;;;4955544;28;20449;-82
2022/12/15 13:59:30;;;;;;;6.33;5.73;;;21.20;56.20;;;;;;4949996;28;20973;-82
2022/12/15 14:01:59;;;;;;;5.90;5.40;;;21.20;56.30;;;;;;4946067;28;21063;-83
2022/12/15 14:04:27;;;;;;;6.33;5.23;;;21.20;56.40;;;;;;4949977;28;20517;-82
2022/12/15 14:07:00;;;;;;;7.83;5.70;;;21.20;56.50;;;;;;4945619;28;20859;-84
2022/12/15 14:09:31;;;;;;;5.20;4.80;;;21.20;56.60;;;;;;4954513;28;20486;-84
2022/12/15 14:12:02;;;;;;;6.80;5.20;;;21.20;56.70;;;;;;4953300;28;20446;-83
2022/12/15 14:14:34;;;;;;;5.57;4.47;;;21.20;56.70;;;;;;4954487;28;20516;-83
2022/12/15 14:17:07;;;;;;;5.90;5.40;;;21.20;56.70;;;;;;4952626;28;20554;-85
2022/12/15 14:19:40;;;;;;;7.10;4.73;;;21.20;56.70;;;;;;4950200;28;20488;-84
2022/12/15 14:22:24;;;;;;;6.73;4.67;;;21.20;56.90;;;;;;4949500;28;20507;-84
2022/12/15 14:25:01;;;;;;;5.00;4.60;;;21.20;56.90;;;;;;4957521;28;20461;-84
2022/12/15 14:27:32;;;;;;;5.70;5.23;;;21.20;56.90;;;;;;4947246;29;20480;-85
2022/12/15 14:30:21;;;;;;;5.23;4.50;;;21.20;56.90;;;;;;4944935;28;20521;-84
2022/12/15 14:32:54;;;;;;;6.80;5.40;;;21.20;57.00;;;;;;4960020;28;20495;-83
2022/12/15 14:35:27;;;;;;;4.63;4.27;;;21.30;57.00;;;;;;4946217;28;20518;-85
2022/12/15 14:37:58;;;;;;;5.60;5.07;;;21.30;57.10;;;;;;4951876;28;20549;-85
2022/12/15 14:40:28;;;;;;;5.03;4.63;;;21.30;57.10;;;;;;4940397;29;20451;-84
2022/12/15 14:42:57;;;;;;;6.30;5.73;;;21.30;57.10;;;;;;4946071;28;20482;-84
2022/12/15 14:45:29;;;;;;;5.17;4.67;;;21.40;57.10;;;;;;4950886;28;20441;-84
2022/12/15 14:48:01;;;;;;;5.03;4.63;;;21.40;57.10;;;;;;4946709;28;20466;-85
2022/12/15 14:50:50;;;;;;;5.43;5.00;;;21.40;57.10;;;;;;4945182;29;20488;-85
2022/12/15 14:53:19;;;;;;;5.67;4.53;;;21.50;57.10;;;;;;4952832;28;20951;-84
2022/12/15 14:55:48;;;;;;;5.80;5.40;;;21.50;57.20;;;;;;4941945;28;20459;-85
2022/12/15 14:58:31;;;;;;;4.83;4.43;;;21.50;57.20;;;;;;4952741;29;21027;-86
2022/12/15 15:01:06;;;;;;;5.07;4.67;;;21.50;57.20;;;;;;4948988;29;20454;-85
2022/12/15 15:03:37;;;;;;;4.77;4.37;;;21.50;57.20;;;;;;4945272;28;20462;-84
2022/12/15 15:06:15;;;;;;;4.30;3.90;;;21.50;57.40;;;;;;4948991;28;20977;-84
2022/12/15 15:08:47;;;;;;;4.47;4.17;;;21.50;57.50;;;;;;4948407;28;20911;-84
2022/12/15 15:11:28;;;;;;;5.83;4.07;;;21.50;57.60;;;;;;4944473;28;20870;-85
2022/12/15 15:14:00;;;;;;;4.30;4.00;;;21.50;57.60;;;;;;4950236;28;20872;-84
2022/12/15 15:16:30;;;;;;;7.10;4.60;;;21.50;57.80;;;;;;4961207;28;20490;-84
2022/12/15 15:19:01;;;;;;;7.40;4.97;;;21.40;57.90;;;;;;4950284;28;20464;-83
2022/12/15 15:21:33;;;;;;;5.20;4.60;;;21.40;58.00;;;;;;4951063;28;20498;-82
2022/12/15 15:24:04;;;;;;;5.60;4.87;;;21.40;58.10;;;;;;4950860;28;20462;-84
2022/12/15 15:26:33;;;;;;;5.03;4.60;;;21.40;58.10;;;;;;4945620;28;20593;-84
2022/12/15 15:29:02;;;;;;;4.90;4.13;;;21.40;58.20;;;;;;4953995;28;20469;-84
2022/12/15 15:31:36;;;;;;;5.50;4.33;;;21.40;58.20;;;;;;4953270;28;20582;-83
2022/12/15 15:34:10;;;;;;;5.13;4.30;;;21.40;58.40;;;;;;4949005;29;20491;-81
2022/12/15 15:36:39;;;;;;;7.80;4.87;;;21.40;58.40;;;;;;4943581;29;21296;-82
2022/12/15 15:39:14;;;;;;;4.20;3.80;;;21.40;58.40;;;;;;4947361;28;20489;-82
2022/12/15 15:41:42;;;;;;;4.30;3.80;;;21.40;58.40;;;;;;4951670;29;20479;-84
2022/12/15 15:44:13;;;;;;;5.20;4.60;;;21.40;58.40;;;;;;4949159;29;20549;-84